Time;durP1;ratioP1;P1;durP2;ratioP2;P2;SDS_P1;SDS_P2;PMS_P1;PMS_P2;Temp;Humidity;BMP_temperature;BMP_pressure;BME280_temperature;BME280_humidity;BME280_pressure;Samples;Min_cycle;Max_cycle;Signal;HPM_P1;HPM_P2
2022/01/26 00:00:01;;;;;;;36.75;20.73;;;;;;;;;;4802310;29;20065;-88
2022/01/26 00:08:02;;;;;;;46.42;20.80;;;;;;;;;;4815887;29;20055;-89
2022/01/26 00:10:30;;;;;;;40.97;22.40;;;;;;;;;;4800723;29;20072;-88
2022/01/26 00:12:58;;;;;;;40.78;18.92;;;;;;;;;;4782944;29;20715;-89
2022/01/26 00:15:29;;;;;;;39.47;20.63;;;;;;;;;;4783128;29;20075;-89
2022/01/26 00:17:57;;;;;;;35.67;20.47;;;;;;;;;;4791142;29;20062;-88
2022/01/26 00:20:38;;;;;;;55.63;26.65;;;;;;;;;;4820632;29;20500;-88
2022/01/26 00:25:46;;;;;;;31.42;16.63;;;;;;;;;;4820373;29;20517;-88
2022/01/26 00:28:56;;;;;;;27.60;15.75;;;;;;;;;;4809205;29;20501;-88
2022/01/26 00:39:45;;;;;;;48.67;21.52;;;;;;;;;;4808384;29;20489;-88
2022/01/26 00:42:13;;;;;;;50.60;19.63;;;;;;;;;;4817869;29;20055;-88
2022/01/26 00:44:46;;;;;;;50.83;17.73;;;;;;;;;;4800006;29;20051;-89
2022/01/26 00:47:15;;;;;;;42.10;20.33;;;;;;;;;;4786286;29;20059;-89
2022/01/26 00:49:46;;;;;;;55.38;21.88;;;;;;;;;;4800331;29;20062;-87
2022/01/26 00:52:25;;;;;;;41.92;22.10;;;;;;;;;;4800261;29;20046;-89
2022/01/26 00:54:53;;;;;;;33.08;20.63;;;;;;;;;;4796255;29;20406;-88
2022/01/26 00:57:22;;;;;;;36.97;15.93;;;;;;;;;;4797211;29;20051;-88
2022/01/26 00:59:54;;;;;;;38.85;21.83;;;;;;;;;;4784391;29;20055;-89
2022/01/26 01:02:22;;;;;;;54.00;19.65;;;;;;;;;;4800779;29;20075;-89
2022/01/26 01:04:51;;;;;;;31.30;18.70;;;;;;;;;;4800430;29;20062;-89
2022/01/26 01:07:22;;;;;;;44.40;21.77;;;;;;;;;;4770456;29;20055;-89
2022/01/26 01:09:50;;;;;;;48.30;23.95;;;;;;;;;;4785664;29;20077;-88
2022/01/26 01:12:18;;;;;;;39.75;19.25;;;;;;;;;;4798236;29;20834;-88
2022/01/26 01:14:47;;;;;;;52.47;23.85;;;;;;;;;;4797046;29;20050;-89
2022/01/26 01:17:23;;;;;;;45.40;19.52;;;;;;;;;;4801749;29;20058;-88
2022/01/26 01:30:45;;;;;;;47.55;20.15;;;;;;;;;;4784840;29;20421;-88
2022/01/26 01:33:19;;;;;;;40.55;22.92;;;;;;;;;;4784682;29;20047;-88
2022/01/26 01:35:48;;;;;;;61.05;26.85;;;;;;;;;;4784184;29;20061;-89
2022/01/26 01:38:18;;;;;;;53.53;27.33;;;;;;;;;;4801027;29;20065;-88
2022/01/26 01:40:48;;;;;;;37.75;19.58;;;;;;;;;;4799801;29;20069;-89
2022/01/26 01:43:17;;;;;;;50.15;21.55;;;;;;;;;;4798689;29;20059;-89
2022/01/26 01:45:49;;;;;;;43.75;21.75;;;;;;;;;;4785117;29;20524;-89
2022/01/26 01:48:25;;;;;;;38.72;20.90;;;;;;;;;;4800354;29;20054;-89
2022/01/26 01:50:59;;;;;;;47.25;21.65;;;;;;;;;;4801207;29;20062;-89
2022/01/26 01:53:36;;;;;;;44.45;23.20;;;;;;;;;;4813879;29;20043;-89
2022/01/26 01:56:05;;;;;;;37.92;21.95;;;;;;;;;;4780977;29;20058;-89
2022/01/26 01:58:34;;;;;;;39.75;22.15;;;;;;;;;;4782492;30;20070;-89
2022/01/26 02:01:03;;;;;;;39.05;21.15;;;;;;;;;;4785964;29;20066;-89
2022/01/26 02:03:33;;;;;;;43.53;17.13;;;;;;;;;;4786903;29;20066;-89
2022/01/26 02:06:06;;;;;;;36.92;19.55;;;;;;;;;;4767341;30;20059;-88
2022/01/26 02:08:34;;;;;;;28.38;14.68;;;;;;;;;;4780482;29;20051;-89
2022/01/26 02:11:06;;;;;;;39.08;20.33;;;;;;;;;;4781597;30;20414;-88
2022/01/26 02:13:47;;;;;;;39.88;18.58;;;;;;;;;;4765504;30;20055;-88
2022/01/26 02:16:25;;;;;;;39.85;20.23;;;;;;;;;;4766328;30;20055;-88
2022/01/26 02:55:18;;;;;;;41.38;19.40;;;;;;;;;;4798241;29;20058;-86
2022/01/26 02:58:44;;;;;;;39.90;20.58;;;;;;;;;;4764813;30;20086;-86
2022/01/26 03:01:01;;;;;;;29.75;19.40;;;;;;;;;;4779019;29;20067;-89
2022/01/26 03:03:40;;;;;;;34.35;18.02;;;;;;;;;;4783485;29;20055;-89
2022/01/26 03:06:15;;;;;;;41.50;16.83;;;;;;;;;;4784110;29;20051;-89
2022/01/26 03:08:50;;;;;;;34.38;14.27;;;;;;;;;;4783020;29;20054;-88
2022/01/26 03:11:27;;;;;;;35.13;14.25;;;;;;;;;;4783253;29;20059;-89
2022/01/26 03:14:06;;;;;;;71.82;19.65;;;;;;;;;;4768580;29;20065;-89
2022/01/26 03:16:48;;;;;;;101.15;21.88;;;;;;;;;;4761768;29;20046;-89
2022/01/26 03:19:43;;;;;;;57.85;17.70;;;;;;;;;;4812916;29;20393;-89
2022/01/26 03:30:34;;;;;;;33.35;17.40;;;;;;;;;;4829229;29;20054;-89
2022/01/26 03:34:08;;;;;;;45.67;16.67;;;;;;;;;;4800785;29;20046;-89
2022/01/26 03:37:13;;;;;;;36.08;16.05;;;;;;;;;;4777564;29;20596;-88
2022/01/26 03:39:43;;;;;;;40.40;18.92;;;;;;;;;;4802142;29;20058;-88
2022/01/26 03:42:23;;;;;;;46.88;15.18;;;;;;;;;;4787233;29;20066;-88
2022/01/26 03:44:58;;;;;;;42.30;19.25;;;;;;;;;;4802756;29;20506;-88
2022/01/26 03:47:28;;;;;;;48.97;16.67;;;;;;;;;;4802669;29;20058;-89
2022/01/26 03:50:06;;;;;;;37.63;15.65;;;;;;;;;;4787340;29;20412;-88
2022/01/26 03:52:36;;;;;;;36.13;18.77;;;;;;;;;;4786808;29;20505;-88
2022/01/26 03:55:07;;;;;;;54.80;20.20;;;;;;;;;;4786982;29;20061;-89
2022/01/26 03:57:46;;;;;;;35.28;18.00;;;;;;;;;;4786373;29;20062;-88
2022/01/26 04:00:17;;;;;;;42.42;18.67;;;;;;;;;;4800824;29;20055;-88
2022/01/26 04:02:48;;;;;;;39.95;16.90;;;;;;;;;;4802812;29;20050;-88
2022/01/26 04:05:19;;;;;;;40.33;16.10;;;;;;;;;;4802305;29;20046;-89
2022/01/26 04:08:03;;;;;;;40.17;19.63;;;;;;;;;;4785815;29;20058;-88
2022/01/26 04:10:49;;;;;;;34.13;15.88;;;;;;;;;;4786572;29;20055;-88
2022/01/26 04:13:28;;;;;;;36.13;17.33;;;;;;;;;;4785713;29;20043;-88
2022/01/26 04:16:47;;;;;;;42.13;16.40;;;;;;;;;;4814504;29;20047;-89
2022/01/26 04:19:55;;;;;;;41.80;16.00;;;;;;;;;;4816003;29;20588;-88
2022/01/26 04:23:31;;;;;;;47.72;14.43;;;;;;;;;;4819496;29;20042;-88
2022/01/26 04:29:16;;;;;;;57.50;20.27;;;;;;;;;;4805268;29;20058;-89
2022/01/26 04:31:48;;;;;;;36.75;17.33;;;;;;;;;;4783866;29;20819;-89
2022/01/26 04:34:18;;;;;;;38.45;19.27;;;;;;;;;;4784195;30;20055;-89
2022/01/26 04:36:58;;;;;;;46.97;22.23;;;;;;;;;;4781078;29;20415;-88
2022/01/26 04:39:33;;;;;;;57.25;22.55;;;;;;;;;;4782396;29;20749;-88
2022/01/26 04:42:14;;;;;;;43.65;22.38;;;;;;;;;;4768293;29;20573;-88
2022/01/26 04:44:56;;;;;;;38.85;18.27;;;;;;;;;;4796370;29;20062;-88
2022/01/26 04:47:28;;;;;;;40.47;17.75;;;;;;;;;;4767365;29;20075;-89
2022/01/26 04:50:03;;;;;;;91.32;19.48;;;;;;;;;;4768714;30;20059;-88
2022/01/26 04:52:32;;;;;;;50.13;16.50;;;;;;;;;;4782224;29;20055;-88
2022/01/26 04:55:00;;;;;;;54.35;16.33;;;;;;;;;;4767664;30;20411;-87
2022/01/26 04:57:34;;;;;;;36.20;18.00;;;;;;;;;;4797591;29;20046;-88
2022/01/26 05:00:09;;;;;;;41.13;12.85;;;;;;;;;;4778654;29;20058;-88
2022/01/26 05:02:53;;;;;;;51.42;17.60;;;;;;;;;;4773410;29;20058;-87
2022/01/26 05:05:24;;;;;;;54.22;17.30;;;;;;;;;;4785324;29;20051;-89
2022/01/26 05:07:57;;;;;;;36.38;17.48;;;;;;;;;;4779642;29;20820;-87
2022/01/26 05:10:38;;;;;;;31.52;16.15;;;;;;;;;;4769512;30;20561;-87
2022/01/26 05:13:07;;;;;;;33.77;15.57;;;;;;;;;;4770766;30;20502;-87
2022/01/26 05:15:35;;;;;;;38.45;15.10;;;;;;;;;;4786708;29;20068;-87
2022/01/26 05:18:19;;;;;;;46.90;16.30;;;;;;;;;;4776979;29;20067;-88
2022/01/26 05:21:54;;;;;;;;;;;;;;;;;;4760427;30;20077;-88
2022/01/26 05:25:03;;;;;;;22.77;10.90;;;;;;;;;;4769523;29;20713;-88
2022/01/26 05:31:23;;;;;;;64.22;14.43;;;;;;;;;;4798767;29;20067;-89
2022/01/26 05:34:18;;;;;;;25.77;11.60;;;;;;;;;;4769468;29;20054;-88
2022/01/26 05:36:49;;;;;;;33.30;13.52;;;;;;;;;;4798078;29;20076;-88
2022/01/26 05:39:37;;;;;;;21.80;11.25;;;;;;;;;;4797861;29;20068;-88
2022/01/26 05:42:41;;;;;;;49.75;12.93;;;;;;;;;;4794508;29;20509;-88
2022/01/26 05:45:33;;;;;;;82.70;18.75;;;;;;;;;;4764936;30;20567;-83
2022/01/26 05:48:09;;;;;;;28.35;14.50;;;;;;;;;;4764914;30;20059;-89
2022/01/26 05:50:38;;;;;;;37.13;17.48;;;;;;;;;;4770884;30;20064;-85
2022/01/26 05:53:06;;;;;;;24.17;15.90;;;;;;;;;;4745509;30;20411;-84
2022/01/26 05:55:37;;;;;;;33.90;14.88;;;;;;;;;;4744361;30;20083;-89
2022/01/26 05:58:10;;;;;;;22.17;15.30;;;;;;;;;;4722895;30;20506;-87
2022/01/26 06:00:39;;;;;;;30.95;15.93;;;;;;;;;;4763311;30;20829;-88
2022/01/26 06:03:08;;;;;;;28.15;13.70;;;;;;;;;;4748834;30;20067;-88
2022/01/26 06:05:36;;;;;;;27.75;15.18;;;;;;;;;;4763014;30;20048;-83
2022/01/26 06:08:05;;;;;;;44.17;19.05;;;;;;;;;;4731704;30;20422;-84
2022/01/26 06:10:33;;;;;;;24.08;16.52;;;;;;;;;;4747212;30;20059;-84
2022/01/26 06:13:01;;;;;;;34.38;16.48;;;;;;;;;;4770485;29;20055;-84
2022/01/26 06:15:29;;;;;;;46.58;18.83;;;;;;;;;;4783416;29;20435;-84
2022/01/26 06:17:58;;;;;;;29.33;15.50;;;;;;;;;;4803188;29;20696;-89
2022/01/26 06:20:47;;;;;;;22.70;12.77;;;;;;;;;;4785156;29;20054;-90
2022/01/26 06:23:17;;;;;;;28.43;15.30;;;;;;;;;;4790426;29;20059;-89
2022/01/26 06:25:45;;;;;;;21.08;14.73;;;;;;;;;;4799789;29;20513;-89
2022/01/26 06:28:16;;;;;;;36.30;12.85;;;;;;;;;;4798189;29;20841;-86
2022/01/26 06:30:56;;;;;;;40.67;17.75;;;;;;;;;;4775484;29;20059;-93
2022/01/26 06:33:27;;;;;;;27.17;12.15;;;;;;;;;;4773993;29;20043;-88
2022/01/26 06:36:04;;;;;;;42.63;11.95;;;;;;;;;;4802406;29;20062;-90
2022/01/26 06:38:44;;;;;;;41.55;13.77;;;;;;;;;;4814001;29;20055;-90
2022/01/26 06:41:22;;;;;;;26.33;9.95;;;;;;;;;;4784190;29;20573;-90
2022/01/26 06:43:56;;;;;;;24.40;12.88;;;;;;;;;;4792226;29;20062;-89
2022/01/26 06:47:30;;;;;;;17.10;11.63;;;;;;;;;;4784377;29;20069;-89
2022/01/26 06:51:52;;;;;;;31.38;13.70;;;;;;;;;;4798116;29;20078;-86
2022/01/26 06:54:23;;;;;;;20.27;12.70;;;;;;;;;;4798788;29;20059;-85
2022/01/26 06:56:54;;;;;;;23.40;13.82;;;;;;;;;;4810372;29;20044;-86
2022/01/26 06:59:24;;;;;;;22.70;12.90;;;;;;;;;;4796379;29;20055;-85
2022/01/26 07:01:54;;;;;;;22.50;12.07;;;;;;;;;;4785509;30;20055;-84
2022/01/26 07:04:31;;;;;;;18.08;10.75;;;;;;;;;;4799125;29;20058;-85
2022/01/26 07:06:59;;;;;;;32.47;15.30;;;;;;;;;;4785851;30;20070;-85
2022/01/26 07:09:27;;;;;;;25.25;15.63;;;;;;;;;;4798179;29;20048;-86
2022/01/26 07:11:55;;;;;;;24.52;16.00;;;;;;;;;;4785613;29;20059;-83
2022/01/26 07:20:44;;;;;;;19.83;11.77;;;;;;;;;;4784698;29;20058;-85
2022/01/26 07:22:49;;;;;;;33.60;14.73;;;;;;;;;;4784964;29;20059;-82
2022/01/26 07:25:17;;;;;;;35.78;14.85;;;;;;;;;;4790638;29;20115;-84
2022/01/26 07:27:45;;;;;;;24.65;16.70;;;;;;;;;;4798644;29;20059;-82
2022/01/26 07:30:13;;;;;;;32.53;15.05;;;;;;;;;;4798138;29;20063;-85
2022/01/26 07:32:48;;;;;;;26.02;17.10;;;;;;;;;;4783778;29;20055;-88
2022/01/26 07:35:20;;;;;;;68.28;14.50;;;;;;;;;;4783556;29;20059;-85
2022/01/26 07:37:50;;;;;;;21.13;11.57;;;;;;;;;;4806589;29;20051;-85
2022/01/26 07:40:18;;;;;;;20.95;11.63;;;;;;;;;;4786213;29;20066;-85
2022/01/26 07:42:46;;;;;;;32.55;14.80;;;;;;;;;;4816519;29;20059;-85
2022/01/26 07:45:14;;;;;;;24.65;13.07;;;;;;;;;;4832550;29;20054;-86
2022/01/26 07:47:43;;;;;;;28.67;15.38;;;;;;;;;;4819864;29;20424;-87
2022/01/26 07:50:14;;;;;;;16.23;11.32;;;;;;;;;;4819633;29;20050;-86
2022/01/26 07:52:43;;;;;;;29.70;16.53;;;;;;;;;;4807550;29;20047;-87
2022/01/26 07:55:15;;;;;;;30.38;15.88;;;;;;;;;;4787412;29;20058;-86
2022/01/26 07:57:44;;;;;;;33.20;17.25;;;;;;;;;;4801485;29;20530;-87
2022/01/26 08:00:13;;;;;;;35.60;18.73;;;;;;;;;;4800421;29;20054;-87
2022/01/26 08:02:45;;;;;;;38.45;17.10;;;;;;;;;;4816642;29;20066;-86
2022/01/26 08:05:15;;;;;;;27.38;15.45;;;;;;;;;;4815754;29;20062;-86
2022/01/26 08:07:43;;;;;;;29.75;15.75;;;;;;;;;;4801727;29;20059;-86
2022/01/26 08:10:12;;;;;;;25.35;13.52;;;;;;;;;;4802213;29;20058;-87
2022/01/26 08:12:40;;;;;;;36.40;17.40;;;;;;;;;;4801786;29;20093;-86
2022/01/26 08:15:24;;;;;;;20.80;12.85;;;;;;;;;;4800408;29;20420;-87
2022/01/26 08:17:52;;;;;;;22.95;14.20;;;;;;;;;;4818174;29;20070;-87
2022/01/26 08:20:22;;;;;;;22.25;12.57;;;;;;;;;;4818502;29;20066;-91
2022/01/26 08:22:56;;;;;;;27.17;14.93;;;;;;;;;;4820346;29;20054;-89
2022/01/26 08:25:25;;;;;;;26.40;15.35;;;;;;;;;;4819817;29;20051;-87
2022/01/26 08:28:00;;;;;;;26.73;14.88;;;;;;;;;;4777365;29;20066;-86
2022/01/26 08:30:29;;;;;;;22.80;14.88;;;;;;;;;;4801161;29;20051;-87
2022/01/26 08:32:57;;;;;;;29.35;16.77;;;;;;;;;;4785480;29;20802;-87
2022/01/26 08:35:25;;;;;;;29.45;16.45;;;;;;;;;;4800168;29;20059;-87
2022/01/26 08:37:53;;;;;;;36.30;15.15;;;;;;;;;;4800531;29;20054;-87
2022/01/26 08:40:21;;;;;;;21.10;11.75;;;;;;;;;;4784968;29;20051;-86
2022/01/26 08:42:49;;;;;;;23.75;14.57;;;;;;;;;;4801773;29;20054;-87
2022/01/26 08:45:22;;;;;;;26.45;15.07;;;;;;;;;;4801468;29;20553;-86
2022/01/26 08:47:50;;;;;;;26.33;15.30;;;;;;;;;;4801481;29;20055;-87
2022/01/26 08:50:18;;;;;;;29.15;15.95;;;;;;;;;;4801838;29;20055;-87
2022/01/26 08:52:47;;;;;;;28.17;15.57;;;;;;;;;;4800021;29;20505;-88
2022/01/26 08:55:16;;;;;;;29.85;13.68;;;;;;;;;;4815132;29;20493;-88
2022/01/26 08:57:44;;;;;;;28.27;15.30;;;;;;;;;;4801118;29;20075;-88
2022/01/26 09:00:12;;;;;;;28.30;15.10;;;;;;;;;;4800668;29;20062;-87
2022/01/26 09:02:41;;;;;;;23.80;15.55;;;;;;;;;;4801348;29;20066;-87
2022/01/26 09:05:09;;;;;;;27.52;15.80;;;;;;;;;;4801260;29;20061;-87
2022/01/26 09:07:40;;;;;;;21.17;13.82;;;;;;;;;;4800806;29;20090;-88
2022/01/26 09:10:08;;;;;;;26.83;16.20;;;;;;;;;;4799851;29;20427;-87
2022/01/26 09:12:40;;;;;;;17.55;12.43;;;;;;;;;;4799548;29;20053;-88
2022/01/26 09:15:09;;;;;;;30.45;15.63;;;;;;;;;;4798947;29;20063;-88
2022/01/26 09:17:38;;;;;;;20.58;12.30;;;;;;;;;;4800273;29;20058;-87
2022/01/26 09:20:07;;;;;;;24.23;13.75;;;;;;;;;;4818808;29;20065;-88
2022/01/26 09:22:35;;;;;;;19.80;12.35;;;;;;;;;;4832474;29;20061;-87
2022/01/26 09:25:03;;;;;;;18.13;12.65;;;;;;;;;;4832684;29;20058;-88
2022/01/26 09:27:31;;;;;;;30.10;14.23;;;;;;;;;;4818866;29;20062;-87
2022/01/26 09:29:59;;;;;;;21.95;13.65;;;;;;;;;;4818556;29;20055;-88
2022/01/26 09:32:27;;;;;;;18.10;14.50;;;;;;;;;;4832629;29;20401;-88
2022/01/26 09:34:56;;;;;;;22.98;15.15;;;;;;;;;;4832470;29;20472;-89
2022/01/26 09:37:24;;;;;;;20.90;12.93;;;;;;;;;;4832477;29;20062;-88
2022/01/26 09:39:52;;;;;;;22.77;13.55;;;;;;;;;;4832235;29;20062;-89
2022/01/26 09:42:20;;;;;;;32.30;15.93;;;;;;;;;;4817795;29;20054;-88
2022/01/26 09:44:48;;;;;;;21.60;13.77;;;;;;;;;;4817855;29;20449;-88
2022/01/26 09:47:16;;;;;;;20.00;11.02;;;;;;;;;;4818804;29;20062;-86
2022/01/26 09:49:45;;;;;;;17.80;12.43;;;;;;;;;;4832997;29;20061;-89
2022/01/26 09:52:20;;;;;;;16.23;14.45;;;;;;;;;;4799252;29;20059;-88
2022/01/26 09:54:48;;;;;;;16.48;9.93;;;;;;;;;;4794739;29;20063;-88
2022/01/26 09:57:27;;;;;;;20.95;12.27;;;;;;;;;;4800248;29;20055;-89
2022/01/26 09:59:55;;;;;;;21.80;12.10;;;;;;;;;;4797964;29;20089;-88
2022/01/26 10:02:28;;;;;;;15.75;11.10;;;;;;;;;;4799415;29;20055;-89
2022/01/26 10:05:08;;;;;;;13.32;9.25;;;;;;;;;;4798651;29;20054;-88
2022/01/26 10:15:49;;;;;;;11.88;9.60;;;;;;;;;;4798511;29;20055;-85
2022/01/26 10:18:20;;;;;;;17.75;12.27;;;;;;;;;;4801727;29;20055;-86
2022/01/26 10:20:50;;;;;;;19.50;13.43;;;;;;;;;;4798096;29;20054;-87
2022/01/26 10:23:20;;;;;;;18.13;10.98;;;;;;;;;;4795242;29;20421;-88
2022/01/26 10:26:02;;;;;;;19.38;12.80;;;;;;;;;;4765945;30;20067;-87
2022/01/26 10:28:49;;;;;;;18.60;15.35;;;;;;;;;;4781442;29;20403;-88
2022/01/26 10:31:28;;;;;;;20.48;14.20;;;;;;;;;;4765159;29;20089;-88
2022/01/26 10:34:13;;;;;;;20.20;12.10;;;;;;;;;;4780813;30;20055;-88
2022/01/26 10:36:42;;;;;;;16.67;12.38;;;;;;;;;;4780632;29;20051;-88
2022/01/26 10:39:12;;;;;;;27.38;14.60;;;;;;;;;;4781897;30;20051;-88
2022/01/26 10:41:42;;;;;;;17.52;12.23;;;;;;;;;;4782273;29;20070;-87
2022/01/26 10:44:10;;;;;;;20.58;14.25;;;;;;;;;;4798914;29;20066;-88
2022/01/26 10:46:41;;;;;;;25.13;15.52;;;;;;;;;;4798638;29;20055;-87
2022/01/26 10:51:54;;;;;;;20.80;14.43;;;;;;;;;;4799538;29;20055;-87
2022/01/26 10:54:37;;;;;;;17.75;12.70;;;;;;;;;;4800021;29;20058;-89
2022/01/26 10:57:06;;;;;;;24.63;13.93;;;;;;;;;;4809906;29;20067;-88
2022/01/26 10:59:35;;;;;;;18.50;12.38;;;;;;;;;;4781207;29;20363;-87
2022/01/26 11:02:07;;;;;;;17.92;11.63;;;;;;;;;;4782365;30;20059;-88
2022/01/26 11:04:38;;;;;;;20.83;12.50;;;;;;;;;;4781632;29;20082;-87
2022/01/26 11:07:07;;;;;;;21.30;14.27;;;;;;;;;;4781748;30;20060;-86
2022/01/26 11:09:38;;;;;;;19.88;13.45;;;;;;;;;;4781074;29;20067;-87
2022/01/26 11:12:11;;;;;;;24.57;15.43;;;;;;;;;;4781602;29;20056;-88
2022/01/26 11:14:50;;;;;;;24.52;16.38;;;;;;;;;;4780080;30;20058;-87
2022/01/26 11:17:31;;;;;;;19.80;14.82;;;;;;;;;;4781485;29;20052;-87
2022/01/26 11:20:00;;;;;;;21.98;15.70;;;;;;;;;;4781005;29;20063;-87
2022/01/26 11:22:32;;;;;;;78.70;20.15;;;;;;;;;;4781368;30;20055;-87
2022/01/26 11:25:12;;;;;;;23.27;15.77;;;;;;;;;;4781130;29;20070;-88
2022/01/26 11:27:42;;;;;;;16.90;14.07;;;;;;;;;;4781328;29;20047;-88
2022/01/26 11:30:33;;;;;;;23.23;14.68;;;;;;;;;;4781507;29;20413;-87
2022/01/26 11:33:04;;;;;;;18.88;12.50;;;;;;;;;;4779607;29;20051;-88
2022/01/26 11:35:36;;;;;;;30.38;20.80;;;;;;;;;;4774953;29;20066;-87
2022/01/26 11:45:07;;;;;;;22.52;15.80;;;;;;;;;;4753096;30;20047;-88
2022/01/26 11:47:37;;;;;;;26.63;12.57;;;;;;;;;;4764729;29;20060;-88
2022/01/26 11:50:10;;;;;;;25.48;15.02;;;;;;;;;;4750289;30;20055;-87
2022/01/26 11:52:39;;;;;;;28.60;16.00;;;;;;;;;;4777154;29;20678;-88
2022/01/26 11:55:21;;;;;;;24.48;14.90;;;;;;;;;;4780100;29;20428;-88
2022/01/26 11:57:52;;;;;;;25.70;19.02;;;;;;;;;;4799299;29;20063;-87
2022/01/26 12:00:39;;;;;;;24.55;16.70;;;;;;;;;;4786649;29;20047;-89
2022/01/26 12:03:18;;;;;;;21.83;13.82;;;;;;;;;;4817416;29;20067;-89
2022/01/26 12:05:47;;;;;;;25.17;15.40;;;;;;;;;;4800811;29;20059;-89
2022/01/26 12:08:26;;;;;;;19.25;14.13;;;;;;;;;;4800582;29;20070;-88
2022/01/26 12:10:54;;;;;;;20.23;12.75;;;;;;;;;;4786597;29;20063;-89
2022/01/26 12:13:25;;;;;;;16.00;13.82;;;;;;;;;;4801706;29;20043;-88
2022/01/26 12:15:57;;;;;;;26.75;14.25;;;;;;;;;;4800984;29;20043;-89
2022/01/26 12:18:41;;;;;;;16.00;8.68;;;;;;;;;;4792522;29;20061;-88
2022/01/26 12:38:43;;;;;;;19.80;12.27;;;;;;;;;;4796712;29;20058;-88
2022/01/26 12:43:53;;;;;;;37.38;16.95;;;;;;;;;;4799096;29;20528;-87
2022/01/26 12:46:29;;;;;;;33.00;17.30;;;;;;;;;;4796027;29;20057;-87
2022/01/26 12:48:57;;;;;;;28.48;14.38;;;;;;;;;;4783795;29;20795;-88
2022/01/26 12:51:28;;;;;;;27.63;18.92;;;;;;;;;;4797949;29;20063;-84
2022/01/26 12:53:59;;;;;;;18.23;13.52;;;;;;;;;;4783830;30;20051;-87
2022/01/26 12:56:28;;;;;;;19.25;11.40;;;;;;;;;;4802999;29;20142;-84
2022/01/26 12:59:07;;;;;;;30.20;18.70;;;;;;;;;;4799412;29;20063;-86
2022/01/26 13:01:35;;;;;;;26.35;14.73;;;;;;;;;;4801829;29;20062;-87
2022/01/26 13:04:05;;;;;;;24.63;18.50;;;;;;;;;;4798910;29;20051;-86
2022/01/26 13:06:35;;;;;;;35.47;20.10;;;;;;;;;;4815169;29;20054;-86
2022/01/26 13:09:15;;;;;;;46.90;26.47;;;;;;;;;;4814685;29;20094;-88
2022/01/26 13:11:45;;;;;;;29.75;21.90;;;;;;;;;;4801585;29;20553;-85
2022/01/26 13:14:33;;;;;;;39.45;26.00;;;;;;;;;;4799504;29;20062;-84
2022/01/26 13:17:12;;;;;;;31.38;20.17;;;;;;;;;;4800537;29;20051;-81
2022/01/26 13:20:13;;;;;;;31.65;19.48;;;;;;;;;;4814949;29;20051;-86
2022/01/26 13:33:55;;;;;;;33.80;20.08;;;;;;;;;;4799473;29;20050;-84
2022/01/26 13:47:29;;;;;;;38.70;20.98;;;;;;;;;;4818770;29;20066;-88
2022/01/26 13:50:27;;;;;;;34.10;18.58;;;;;;;;;;4800524;29;20073;-91
2022/01/26 13:53:19;;;;;;;23.67;17.30;;;;;;;;;;4779094;29;20047;-89
2022/01/26 13:56:04;;;;;;;36.80;19.13;;;;;;;;;;4769588;29;20054;-84
2022/01/26 13:58:47;;;;;;;34.63;19.90;;;;;;;;;;4783208;29;20058;-84
2022/01/26 14:01:19;;;;;;;42.58;24.05;;;;;;;;;;4783610;29;20058;-86
2022/01/26 14:03:53;;;;;;;42.67;20.08;;;;;;;;;;4806548;29;20791;-84
2022/01/26 14:06:29;;;;;;;31.50;17.88;;;;;;;;;;4791115;29;20043;-82
2022/01/26 14:08:59;;;;;;;27.55;18.42;;;;;;;;;;4788013;29;20071;-81
2022/01/26 14:11:28;;;;;;;35.28;19.55;;;;;;;;;;4788264;29;20233;-82
2022/01/26 14:13:58;;;;;;;24.27;14.50;;;;;;;;;;4788639;29;20054;-82
2022/01/26 14:16:29;;;;;;;47.33;22.17;;;;;;;;;;4802499;29;20269;-84
2022/01/26 14:21:42;;;;;;;35.47;19.13;;;;;;;;;;4797971;29;20046;-85
2022/01/26 14:26:53;;;;;;;29.80;17.85;;;;;;;;;;4798398;29;20560;-83
2022/01/26 15:59:02;;;;;;;33.10;18.13;;;;;;;;;;4802231;29;20054;-82
2022/01/26 16:04:30;;;;;;;32.40;17.83;;;;;;;;;;4802073;29;20062;-85
2022/01/26 17:02:58;;;;;;;24.70;18.02;;;;;;;;;;4815190;29;20383;-84
2022/01/26 17:47:15;;;;;;;44.25;25.45;;;;;;;;;;4798928;29;20070;-86
2022/01/26 18:04:01;;;;;;;40.30;22.45;;;;;;;;;;4786454;29;20051;-85
2022/01/26 18:07:19;;;;;;;35.72;20.63;;;;;;;;;;4779999;29;20054;-86
2022/01/26 18:50:48;;;;;;;43.08;23.02;;;;;;;;;;4799973;29;20074;-84
2022/01/26 18:57:30;;;;;;;44.38;23.33;;;;;;;;;;4755121;29;20059;-85
2022/01/26 19:01:17;;;;;;;21.73;16.08;;;;;;;;;;4746305;29;20060;-85
2022/01/26 19:04:03;;;;;;;67.35;25.67;;;;;;;;;;4733451;29;20059;-85
2022/01/26 19:06:38;;;;;;;44.80;22.88;;;;;;;;;;4761938;29;20060;-87
2022/01/26 19:09:07;;;;;;;34.55;23.27;;;;;;;;;;4773562;29;20507;-85
2022/01/26 19:11:35;;;;;;;41.55;22.80;;;;;;;;;;4800099;29;20066;-85
2022/01/26 19:14:06;;;;;;;33.58;22.05;;;;;;;;;;4783534;29;20051;-85
2022/01/26 19:16:57;;;;;;;39.95;25.95;;;;;;;;;;4798992;29;20061;-85
2022/01/26 19:25:15;;;;;;;44.40;19.45;;;;;;;;;;4780815;29;20057;-83
2022/01/26 20:01:05;;;;;;;36.93;22.70;;;;;;;;;;4742381;30;20049;-83
2022/01/26 20:04:50;;;;;;;48.00;26.25;;;;;;;;;;4771830;29;20051;-83
2022/01/26 20:18:37;;;;;;;50.10;24.60;;;;;;;;;;4594194;31;20103;-83
2022/01/26 20:22:00;;;;;;;44.28;23.95;;;;;;;;;;4630010;30;20111;-84
2022/01/26 20:25:04;;;;;;;48.13;27.52;;;;;;;;;;4628465;30;20111;-83
2022/01/26 20:42:30;;;;;;;35.05;21.73;;;;;;;;;;4715230;30;20543;-86
2022/01/26 20:46:37;;;;;;;39.53;27.17;;;;;;;;;;4701946;30;20060;-85
2022/01/26 20:50:07;;;;;;;41.42;22.38;;;;;;;;;;4732196;30;20749;-86
2022/01/26 20:54:37;;;;;;;45.05;23.60;;;;;;;;;;4720566;30;20485;-86
2022/01/26 21:12:37;;;;;;;48.08;30.52;;;;;;;;;;4620421;30;20621;-86
2022/01/26 21:16:30;;;;;;;;;;;;;;;;;;;;;
2022/01/26 21:20:52;;;;;;;46.25;23.85;;;;;;;;;;4653779;30;20050;-86
2022/01/26 21:24:47;;;;;;;30.35;15.60;;;;;;;;;;4637214;30;20627;-86
2022/01/26 21:27:47;;;;;;;51.53;24.87;;;;;;;;;;4637214;30;20061;-86
2022/01/26 21:31:15;;;;;;;42.55;20.55;;;;;;;;;;4706414;30;20306;-86
2022/01/26 21:34:29;;;;;;;57.60;24.55;;;;;;;;;;4722541;30;20056;-85
2022/01/26 21:41:46;;;;;;;41.08;22.88;;;;;;;;;;4694199;30;20041;-86
2022/01/26 21:45:37;;;;;;;37.85;21.75;;;;;;;;;;4714850;30;20071;-85
2022/01/26 21:48:40;;;;;;;53.80;24.02;;;;;;;;;;4724473;30;20067;-86
2022/01/26 21:55:51;;;;;;;50.75;24.17;;;;;;;;;;4734976;30;20449;-85
2022/01/26 21:59:18;;;;;;;48.67;25.98;;;;;;;;;;4713029;30;20060;-85
2022/01/26 22:06:26;;;;;;;44.30;26.45;;;;;;;;;;4668572;30;20064;-85
2022/01/26 22:09:35;;;;;;;32.13;17.95;;;;;;;;;;4709912;30;20049;-85
2022/01/26 22:13:15;;;;;;;53.20;25.45;;;;;;;;;;4730788;30;20075;-85
2022/01/26 22:16:16;;;;;;;42.42;25.20;;;;;;;;;;4779883;29;20529;-86
2022/01/26 22:19:11;;;;;;;50.72;26.08;;;;;;;;;;4793838;29;20050;-86
2022/01/26 22:21:57;;;;;;;53.55;24.48;;;;;;;;;;4814684;29;20066;-85
2022/01/26 22:24:47;;;;;;;51.30;28.02;;;;;;;;;;4826010;29;20104;-85
2022/01/26 22:28:18;;;;;;;67.80;25.75;;;;;;;;;;4834984;29;20054;-85
2022/01/26 22:30:53;;;;;;;46.85;27.33;;;;;;;;;;4831692;29;20069;-85
2022/01/26 22:33:35;;;;;;;57.22;25.30;;;;;;;;;;4831794;29;20054;-85
2022/01/26 22:36:31;;;;;;;44.67;23.98;;;;;;;;;;4818430;29;20069;-86
2022/01/26 22:39:48;;;;;;;53.08;26.08;;;;;;;;;;4831511;29;20065;-85
2022/01/26 22:43:13;;;;;;;46.65;23.00;;;;;;;;;;4816185;29;20054;-85
2022/01/26 22:46:16;;;;;;;41.22;24.23;;;;;;;;;;4827451;29;20057;-85
2022/01/26 22:49:01;;;;;;;37.75;24.98;;;;;;;;;;4820140;29;20054;-85
2022/01/26 22:51:39;;;;;;;53.00;21.08;;;;;;;;;;4816023;29;20073;-85
2022/01/26 22:54:37;;;;;;;;;;;;;;;;;;;;;
2022/01/26 22:57:32;;;;;;;46.05;22.48;;;;;;;;;;4827198;29;20725;-85
2022/01/26 23:00:25;;;;;;;52.03;26.58;;;;;;;;;;4833259;29;20608;-85
2022/01/26 23:03:06;;;;;;;42.35;20.73;;;;;;;;;;4850976;29;20080;-85
2022/01/26 23:09:03;;;;;;;51.15;24.67;;;;;;;;;;4838601;29;20046;-85
2022/01/26 23:11:39;;;;;;;49.88;28.15;;;;;;;;;;4835883;29;20104;-85
2022/01/26 23:14:11;;;;;;;48.92;25.58;;;;;;;;;;4835016;29;20058;-85
2022/01/26 23:17:20;;;;;;;50.30;24.05;;;;;;;;;;4830335;29;20050;-85
2022/01/26 23:20:16;;;;;;;44.13;24.30;;;;;;;;;;4833670;29;20057;-88
2022/01/26 23:22:44;;;;;;;42.22;19.75;;;;;;;;;;4817752;29;20069;-88
2022/01/26 23:25:59;;;;;;;44.78;24.80;;;;;;;;;;4800464;29;20054;-84
